sensor_id;sensor_type;location;lat;lon;timestamp;pressure;altitude;pressure_sealevel;temperature;humidity
63607;BME280;51327;52.466;-1.938;2022-08-16T00:02:12;98854.50;;;17.99;71.53
63607;BME280;51327;52.466;-1.938;2022-08-16T00:04:38;98851.97;;;17.97;71.88
63607;BME280;51327;52.466;-1.938;2022-08-16T00:07:05;98852.97;;;17.96;71.81
63607;BME280;51327;52.466;-1.938;2022-08-16T00:09:33;98848.75;;;17.93;71.92
63607;BME280;51327;52.466;-1.938;2022-08-16T00:11:58;98845.56;;;17.90;72.19
63607;BME280;51327;52.466;-1.938;2022-08-16T00:14:25;98854.84;;;17.87;72.34
63607;BME280;51327;52.466;-1.938;2022-08-16T00:16:53;98848.09;;;17.83;72.14
63607;BME280;51327;52.466;-1.938;2022-08-16T00:19:22;98840.47;;;17.79;72.54
63607;BME280;51327;52.466;-1.938;2022-08-16T00:21:51;98848.88;;;17.75;72.58
63607;BME280;51327;52.466;-1.938;2022-08-16T00:24:16;98845.16;;;17.68;72.60
63607;BME280;51327;52.466;-1.938;2022-08-16T00:26:42;98849.56;;;17.61;73.25
63607;BME280;51327;52.466;-1.938;2022-08-16T00:29:11;98854.94;;;17.53;73.19
63607;BME280;51327;52.466;-1.938;2022-08-16T00:31:39;98859.16;;;17.47;73.69
63607;BME280;51327;52.466;-1.938;2022-08-16T00:34:07;98855.25;;;17.42;73.97
63607;BME280;51327;52.466;-1.938;2022-08-16T00:36:35;98850.22;;;17.39;74.38
63607;BME280;51327;52.466;-1.938;2022-08-16T00:39:03;98863.22;;;17.35;74.17
63607;BME280;51327;52.466;-1.938;2022-08-16T00:41:30;98856.59;;;17.29;74.46
63607;BME280;51327;52.466;-1.938;2022-08-16T00:44:02;98848.31;;;17.23;74.56
63607;BME280;51327;52.466;-1.938;2022-08-16T00:46:53;98836.16;;;17.19;75.24
63607;BME280;51327;52.466;-1.938;2022-08-16T00:49:22;98842.06;;;17.14;75.29
63607;BME280;51327;52.466;-1.938;2022-08-16T00:51:50;98847.94;;;17.09;75.49
63607;BME280;51327;52.466;-1.938;2022-08-16T00:54:18;98839.50;;;17.04;76.00
63607;BME280;51327;52.466;-1.938;2022-08-16T00:56:46;98836.28;;;17.01;75.74
63607;BME280;51327;52.466;-1.938;2022-08-16T00:59:17;98832.25;;;16.97;76.28
63607;BME280;51327;52.466;-1.938;2022-08-16T01:01:43;98831.88;;;16.91;76.39
63607;BME280;51327;52.466;-1.938;2022-08-16T01:04:09;98835.06;;;16.87;76.63
63607;BME280;51327;52.466;-1.938;2022-08-16T01:06:38;98829.31;;;16.82;76.97
63607;BME280;51327;52.466;-1.938;2022-08-16T01:09:06;98828.94;;;16.77;77.63
63607;BME280;51327;52.466;-1.938;2022-08-16T01:11:34;98833.81;;;16.73;77.85
63607;BME280;51327;52.466;-1.938;2022-08-16T01:14:38;98845.06;;;16.68;78.39
63607;BME280;51327;52.466;-1.938;2022-08-16T01:16:55;98840.16;;;16.64;78.61
63607;BME280;51327;52.466;-1.938;2022-08-16T01:19:28;98835.09;;;16.61;78.78
63607;BME280;51327;52.466;-1.938;2022-08-16T01:22:02;98841.66;;;16.58;79.20
63607;BME280;51327;52.466;-1.938;2022-08-16T01:24:41;98845.53;;;16.56;79.42
63607;BME280;51327;52.466;-1.938;2022-08-16T01:28:11;98842.84;;;16.56;80.01
63607;BME280;51327;52.466;-1.938;2022-08-16T01:30:28;98843.00;;;16.54;80.38
63607;BME280;51327;52.466;-1.938;2022-08-16T01:32:58;98848.72;;;16.51;80.55
63607;BME280;51327;52.466;-1.938;2022-08-16T01:35:27;98849.19;;;16.46;80.29
63607;BME280;51327;52.466;-1.938;2022-08-16T01:37:56;98859.44;;;16.43;79.90
63607;BME280;51327;52.466;-1.938;2022-08-16T01:40:37;98864.28;;;16.39;80.84
63607;BME280;51327;52.466;-1.938;2022-08-16T01:43:05;98859.09;;;16.38;80.86
63607;BME280;51327;52.466;-1.938;2022-08-16T01:45:34;98864.09;;;16.33;81.02
63607;BME280;51327;52.466;-1.938;2022-08-16T01:48:01;98857.16;;;16.30;81.55
63607;BME280;51327;52.466;-1.938;2022-08-16T01:50:31;98858.19;;;16.29;81.58
63607;BME280;51327;52.466;-1.938;2022-08-16T01:53:00;98860.34;;;16.25;81.76
63607;BME280;51327;52.466;-1.938;2022-08-16T01:55:27;98863.03;;;16.25;82.07
63607;BME280;51327;52.466;-1.938;2022-08-16T01:57:55;98861.50;;;16.23;81.90
63607;BME280;51327;52.466;-1.938;2022-08-16T02:00:22;98864.34;;;16.21;82.58
63607;BME280;51327;52.466;-1.938;2022-08-16T02:02:50;98860.81;;;16.21;82.51
63607;BME280;51327;52.466;-1.938;2022-08-16T02:05:19;98860.81;;;16.21;82.59
63607;BME280;51327;52.466;-1.938;2022-08-16T02:07:47;98854.59;;;16.20;82.52
63607;BME280;51327;52.466;-1.938;2022-08-16T02:10:14;98844.97;;;16.18;82.80
63607;BME280;51327;52.466;-1.938;2022-08-16T02:12:43;98841.59;;;16.16;82.75
63607;BME280;51327;52.466;-1.938;2022-08-16T02:15:11;98840.06;;;16.13;82.95
63607;BME280;51327;52.466;-1.938;2022-08-16T02:17:39;98835.84;;;16.11;83.26
63607;BME280;51327;52.466;-1.938;2022-08-16T02:20:07;98842.22;;;16.10;83.36
63607;BME280;51327;52.466;-1.938;2022-08-16T02:22:35;98845.25;;;16.06;83.63
63607;BME280;51327;52.466;-1.938;2022-08-16T02:25:11;98850.25;;;16.01;83.55
63607;BME280;51327;52.466;-1.938;2022-08-16T02:27:39;98847.84;;;15.98;82.96
63607;BME280;51327;52.466;-1.938;2022-08-16T02:30:05;98852.56;;;15.96;84.03
63607;BME280;51327;52.466;-1.938;2022-08-16T02:32:31;98844.66;;;15.95;84.10
63607;BME280;51327;52.466;-1.938;2022-08-16T02:35:00;98846.66;;;15.93;84.27
63607;BME280;51327;52.466;-1.938;2022-08-16T02:37:28;98844.13;;;15.91;83.78
63607;BME280;51327;52.466;-1.938;2022-08-16T02:39:55;98846.81;;;15.91;84.40
63607;BME280;51327;52.466;-1.938;2022-08-16T02:42:23;98830.97;;;15.88;84.22
63607;BME280;51327;52.466;-1.938;2022-08-16T02:44:50;98840.91;;;15.88;84.77
63607;BME280;51327;52.466;-1.938;2022-08-16T02:47:17;98832.28;;;15.84;84.86
63607;BME280;51327;52.466;-1.938;2022-08-16T02:49:45;98833.44;;;15.81;84.96
63607;BME280;51327;52.466;-1.938;2022-08-16T02:52:12;98832.75;;;15.79;85.60
63607;BME280;51327;52.466;-1.938;2022-08-16T02:54:41;98837.28;;;15.79;85.55
63607;BME280;51327;52.466;-1.938;2022-08-16T02:57:08;98832.75;;;15.79;86.02
63607;BME280;51327;52.466;-1.938;2022-08-16T02:59:36;98839.66;;;15.82;85.88
63607;BME280;51327;52.466;-1.938;2022-08-16T03:02:04;98830.75;;;15.81;85.59
63607;BME280;51327;52.466;-1.938;2022-08-16T03:04:32;98829.22;;;15.79;85.92
63607;BME280;51327;52.466;-1.938;2022-08-16T03:06:59;98839.28;;;15.77;86.18
63607;BME280;51327;52.466;-1.938;2022-08-16T03:09:27;98840.59;;;15.73;85.99
63607;BME280;51327;52.466;-1.938;2022-08-16T03:11:54;98831.13;;;15.69;85.77
63607;BME280;51327;52.466;-1.938;2022-08-16T03:14:22;98842.72;;;15.69;86.17
63607;BME280;51327;52.466;-1.938;2022-08-16T03:16:49;98840.03;;;15.69;86.76
63607;BME280;51327;52.466;-1.938;2022-08-16T03:19:17;98853.47;;;15.69;87.11
63607;BME280;51327;52.466;-1.938;2022-08-16T03:21:44;98860.91;;;15.67;87.55
63607;BME280;51327;52.466;-1.938;2022-08-16T03:24:12;98862.03;;;15.64;87.80
63607;BME280;51327;52.466;-1.938;2022-08-16T03:26:40;98868.41;;;15.63;87.60
63607;BME280;51327;52.466;-1.938;2022-08-16T03:29:07;98858.97;;;15.59;87.99
63607;BME280;51327;52.466;-1.938;2022-08-16T03:31:34;98856.59;;;15.56;88.35
63607;BME280;51327;52.466;-1.938;2022-08-16T03:34:02;98858.44;;;15.56;88.16
63607;BME280;51327;52.466;-1.938;2022-08-16T03:36:29;98857.88;;;15.52;88.58
63607;BME280;51327;52.466;-1.938;2022-08-16T03:38:57;98850.97;;;15.50;88.87
63607;BME280;51327;52.466;-1.938;2022-08-16T03:41:24;98858.34;;;15.48;88.89
63607;BME280;51327;52.466;-1.938;2022-08-16T03:43:53;98863.03;;;15.45;89.17
63607;BME280;51327;52.466;-1.938;2022-08-16T03:46:20;98861.34;;;15.44;89.18
63607;BME280;51327;52.466;-1.938;2022-08-16T03:48:48;98869.44;;;15.44;89.10
63607;BME280;51327;52.466;-1.938;2022-08-16T03:51:16;98873.09;;;15.43;89.53
63607;BME280;51327;52.466;-1.938;2022-08-16T03:53:44;98876.63;;;15.44;89.42
63607;BME280;51327;52.466;-1.938;2022-08-16T03:56:11;98866.19;;;15.41;89.83
63607;BME280;51327;52.466;-1.938;2022-08-16T03:58:39;98869.72;;;15.41;90.33
63607;BME280;51327;52.466;-1.938;2022-08-16T04:01:06;98866.75;;;15.44;90.43
63607;BME280;51327;52.466;-1.938;2022-08-16T04:03:34;98860.34;;;15.45;90.55
63607;BME280;51327;52.466;-1.938;2022-08-16T04:06:02;98855.66;;;15.48;90.97
63607;BME280;51327;52.466;-1.938;2022-08-16T04:08:28;98863.72;;;15.48;91.14
63607;BME280;51327;52.466;-1.938;2022-08-16T04:10:55;98866.41;;;15.48;91.66
63607;BME280;51327;52.466;-1.938;2022-08-16T04:13:23;98857.34;;;15.49;92.21
63607;BME280;51327;52.466;-1.938;2022-08-16T04:15:50;98862.44;;;15.52;91.60
63607;BME280;51327;52.466;-1.938;2022-08-16T04:18:18;98860.44;;;15.54;91.95
63607;BME280;51327;52.466;-1.938;2022-08-16T04:20:46;98855.88;;;15.54;92.67
63607;BME280;51327;52.466;-1.938;2022-08-16T04:23:13;98859.56;;;15.53;92.63
63607;BME280;51327;52.466;-1.938;2022-08-16T04:25:42;98864.94;;;15.53;92.97
63607;BME280;51327;52.466;-1.938;2022-08-16T04:28:10;98865.97;;;15.52;92.74
63607;BME280;51327;52.466;-1.938;2022-08-16T04:30:37;98877.03;;;15.49;94.00
63607;BME280;51327;52.466;-1.938;2022-08-16T04:33:06;98873.81;;;15.45;93.57
63607;BME280;51327;52.466;-1.938;2022-08-16T04:35:34;98884.19;;;15.40;94.15
63607;BME280;51327;52.466;-1.938;2022-08-16T04:38:02;98881.78;;;15.37;94.66
63607;BME280;51327;52.466;-1.938;2022-08-16T04:40:31;98890.84;;;15.36;94.90
63607;BME280;51327;52.466;-1.938;2022-08-16T04:42:58;98896.25;;;15.36;94.24
63607;BME280;51327;52.466;-1.938;2022-08-16T04:45:27;98888.63;;;15.32;95.19
63607;BME280;51327;52.466;-1.938;2022-08-16T04:47:54;98888.78;;;15.30;95.19
63607;BME280;51327;52.466;-1.938;2022-08-16T04:50:23;98894.00;;;15.32;94.89
63607;BME280;51327;52.466;-1.938;2022-08-16T04:52:51;98890.31;;;15.33;94.96
63607;BME280;51327;52.466;-1.938;2022-08-16T04:55:21;98898.22;;;15.34;94.69
63607;BME280;51327;52.466;-1.938;2022-08-16T04:57:49;98902.63;;;15.35;94.92
63607;BME280;51327;52.466;-1.938;2022-08-16T05:00:19;98911.22;;;15.39;94.47
63607;BME280;51327;52.466;-1.938;2022-08-16T05:02:50;98902.63;;;15.35;94.65
63607;BME280;51327;52.466;-1.938;2022-08-16T05:05:18;98903.75;;;15.33;95.10
63607;BME280;51327;52.466;-1.938;2022-08-16T05:07:47;98899.06;;;15.35;94.93
63607;BME280;51327;52.466;-1.938;2022-08-16T05:10:14;98900.59;;;15.37;94.60
63607;BME280;51327;52.466;-1.938;2022-08-16T05:12:42;98906.69;;;15.39;94.75
63607;BME280;51327;52.466;-1.938;2022-08-16T05:15:10;98899.31;;;15.41;94.60
63607;BME280;51327;52.466;-1.938;2022-08-16T05:17:35;98904.56;;;15.43;94.47
63607;BME280;51327;52.466;-1.938;2022-08-16T05:20:01;98904.88;;;15.40;94.29
63607;BME280;51327;52.466;-1.938;2022-08-16T05:22:28;98910.06;;;15.41;94.32
63607;BME280;51327;52.466;-1.938;2022-08-16T05:24:56;98907.38;;;15.41;94.25
63607;BME280;51327;52.466;-1.938;2022-08-16T05:27:23;98910.25;;;15.40;94.31
63607;BME280;51327;52.466;-1.938;2022-08-16T05:29:51;98914.63;;;15.41;94.57
63607;BME280;51327;52.466;-1.938;2022-08-16T05:32:18;98922.53;;;15.42;94.88
63607;BME280;51327;52.466;-1.938;2022-08-16T05:34:46;98912.47;;;15.44;95.13
63607;BME280;51327;52.466;-1.938;2022-08-16T05:37:13;98924.59;;;15.49;95.16
63607;BME280;51327;52.466;-1.938;2022-08-16T05:39:41;98932.22;;;15.53;95.06
63607;BME280;51327;52.466;-1.938;2022-08-16T05:42:08;98925.41;;;15.59;94.99
63607;BME280;51327;52.466;-1.938;2022-08-16T05:44:36;98932.00;;;15.64;94.81
63607;BME280;51327;52.466;-1.938;2022-08-16T05:47:03;98937.94;;;15.68;94.69
63607;BME280;51327;52.466;-1.938;2022-08-16T05:49:31;98937.50;;;15.73;94.48
63607;BME280;51327;52.466;-1.938;2022-08-16T05:51:56;98937.59;;;15.81;93.92
63607;BME280;51327;52.466;-1.938;2022-08-16T05:54:24;98948.59;;;15.88;93.40
63607;BME280;51327;52.466;-1.938;2022-08-16T05:56:53;98958.91;;;15.92;92.91
63607;BME280;51327;52.466;-1.938;2022-08-16T05:59:18;98955.44;;;16.00;92.46
63607;BME280;51327;52.466;-1.938;2022-08-16T06:01:44;98958.34;;;16.06;92.41
63607;BME280;51327;52.466;-1.938;2022-08-16T06:04:12;98954.03;;;16.14;91.80
63607;BME280;51327;52.466;-1.938;2022-08-16T06:06:40;98957.97;;;16.19;91.60
63607;BME280;51327;52.466;-1.938;2022-08-16T06:09:12;98948.53;;;16.23;90.76
63607;BME280;51327;52.466;-1.938;2022-08-16T06:11:38;98942.03;;;16.26;90.63
63607;BME280;51327;52.466;-1.938;2022-08-16T06:14:03;98939.53;;;16.33;90.68
63607;BME280;51327;52.466;-1.938;2022-08-16T06:16:31;98948.69;;;16.40;90.03
63607;BME280;51327;52.466;-1.938;2022-08-16T06:18:59;98961.00;;;16.42;90.21
63607;BME280;51327;52.466;-1.938;2022-08-16T06:21:26;98970.94;;;16.42;89.89
63607;BME280;51327;52.466;-1.938;2022-08-16T06:23:54;98981.25;;;16.46;89.52
63607;BME280;51327;52.466;-1.938;2022-08-16T06:26:22;98980.09;;;16.49;89.37
63607;BME280;51327;52.466;-1.938;2022-08-16T06:28:47;98970.16;;;16.49;89.04
63607;BME280;51327;52.466;-1.938;2022-08-16T06:31:13;98967.13;;;16.53;89.13
63607;BME280;51327;52.466;-1.938;2022-08-16T06:33:41;98970.16;;;16.49;89.08
63607;BME280;51327;52.466;-1.938;2022-08-16T06:36:10;98970.84;;;16.52;89.26
63607;BME280;51327;52.466;-1.938;2022-08-16T06:38:40;98972.03;;;16.57;89.21
63607;BME280;51327;52.466;-1.938;2022-08-16T06:41:08;98975.28;;;16.61;88.87
63607;BME280;51327;52.466;-1.938;2022-08-16T06:43:35;98966.50;;;16.59;88.92
63607;BME280;51327;52.466;-1.938;2022-08-16T06:46:05;98966.50;;;16.59;89.39
63607;BME280;51327;52.466;-1.938;2022-08-16T06:48:32;98967.47;;;16.58;89.26
63607;BME280;51327;52.466;-1.938;2022-08-16T06:51:03;98971.19;;;16.57;89.46
63607;BME280;51327;52.466;-1.938;2022-08-16T06:53:29;98967.81;;;16.55;89.60
63607;BME280;51327;52.466;-1.938;2022-08-16T06:55:57;98972.22;;;16.56;89.39
63607;BME280;51327;52.466;-1.938;2022-08-16T06:58:25;98970.72;;;16.61;89.55
63607;BME280;51327;52.466;-1.938;2022-08-16T07:00:52;98965.69;;;16.66;89.52
63607;BME280;51327;52.466;-1.938;2022-08-16T07:03:20;98966.75;;;16.74;89.13
63607;BME280;51327;52.466;-1.938;2022-08-16T07:05:47;98963.75;;;16.77;88.86
63607;BME280;51327;52.466;-1.938;2022-08-16T07:08:15;98967.84;;;16.81;88.46
63607;BME280;51327;52.466;-1.938;2022-08-16T07:10:43;98974.59;;;16.85;88.34
63607;BME280;51327;52.466;-1.938;2022-08-16T07:13:10;98973.28;;;16.89;87.99
63607;BME280;51327;52.466;-1.938;2022-08-16T07:15:38;98971.81;;;16.95;87.75
63607;BME280;51327;52.466;-1.938;2022-08-16T07:18:05;98982.94;;;17.00;87.65
63607;BME280;51327;52.466;-1.938;2022-08-16T07:20:33;98986.69;;;17.07;87.41
63607;BME280;51327;52.466;-1.938;2022-08-16T07:23:00;99003.09;;;17.14;86.93
63607;BME280;51327;52.466;-1.938;2022-08-16T07:25:28;99002.41;;;17.11;86.66
63607;BME280;51327;52.466;-1.938;2022-08-16T07:27:54;99003.91;;;17.14;86.73
63607;BME280;51327;52.466;-1.938;2022-08-16T07:30:19;99008.16;;;17.17;86.44
63607;BME280;51327;52.466;-1.938;2022-08-16T07:32:47;99008.84;;;17.19;86.01
63607;BME280;51327;52.466;-1.938;2022-08-16T07:35:17;99003.97;;;17.22;86.15
63607;BME280;51327;52.466;-1.938;2022-08-16T07:37:44;99008.72;;;17.28;85.50
63607;BME280;51327;52.466;-1.938;2022-08-16T07:40:12;99001.50;;;17.37;85.30
63607;BME280;51327;52.466;-1.938;2022-08-16T07:42:39;99002.56;;;17.44;84.51
63607;BME280;51327;52.466;-1.938;2022-08-16T07:45:07;99001.59;;;17.53;84.10
63607;BME280;51327;52.466;-1.938;2022-08-16T07:47:35;99000.59;;;17.63;83.91
63607;BME280;51327;52.466;-1.938;2022-08-16T07:50:02;99012.09;;;17.73;83.27
63607;BME280;51327;52.466;-1.938;2022-08-16T07:52:30;99014.97;;;17.80;82.91
63607;BME280;51327;52.466;-1.938;2022-08-16T07:54:57;99015.34;;;17.85;82.52
63607;BME280;51327;52.466;-1.938;2022-08-16T07:57:25;99023.63;;;17.91;81.94
63607;BME280;51327;52.466;-1.938;2022-08-16T07:59:52;99022.16;;;17.97;81.29
63607;BME280;51327;52.466;-1.938;2022-08-16T08:02:20;99025.72;;;18.06;80.57
63607;BME280;51327;52.466;-1.938;2022-08-16T08:04:46;99027.72;;;18.12;80.50
63607;BME280;51327;52.466;-1.938;2022-08-16T08:07:12;99028.91;;;18.26;80.08
63607;BME280;51327;52.466;-1.938;2022-08-16T08:09:39;99031.31;;;18.29;79.13
63607;BME280;51327;52.466;-1.938;2022-08-16T08:12:07;99035.88;;;18.36;78.87
63607;BME280;51327;52.466;-1.938;2022-08-16T08:14:35;99046.38;;;18.40;78.23
63607;BME280;51327;52.466;-1.938;2022-08-16T08:17:03;99037.38;;;18.39;77.73
63607;BME280;51327;52.466;-1.938;2022-08-16T08:19:33;99036.91;;;18.35;78.00
63607;BME280;51327;52.466;-1.938;2022-08-16T08:21:59;99042.97;;;18.38;77.57
63607;BME280;51327;52.466;-1.938;2022-08-16T08:24:25;99049.06;;;18.40;77.79
63607;BME280;51327;52.466;-1.938;2022-08-16T08:26:53;99057.00;;;18.41;77.62
63607;BME280;51327;52.466;-1.938;2022-08-16T08:29:21;99050.59;;;18.42;77.35
63607;BME280;51327;52.466;-1.938;2022-08-16T08:31:48;99050.41;;;18.44;77.58
63607;BME280;51327;52.466;-1.938;2022-08-16T08:34:16;99057.00;;;18.49;77.09
63607;BME280;51327;52.466;-1.938;2022-08-16T08:36:44;99052.09;;;18.53;77.00
63607;BME280;51327;52.466;-1.938;2022-08-16T08:39:11;99051.41;;;18.59;76.68
63607;BME280;51327;52.466;-1.938;2022-08-16T08:41:40;99066.47;;;18.62;75.94
63607;BME280;51327;52.466;-1.938;2022-08-16T08:44:08;99057.50;;;18.61;76.08
63607;BME280;51327;52.466;-1.938;2022-08-16T08:46:33;99055.13;;;18.66;75.82
63607;BME280;51327;52.466;-1.938;2022-08-16T08:48:59;99054.63;;;18.71;75.91
63607;BME280;51327;52.466;-1.938;2022-08-16T08:51:26;99058.19;;;18.80;75.24
63607;BME280;51327;52.466;-1.938;2022-08-16T08:53:54;99069.53;;;18.83;75.26
63607;BME280;51327;52.466;-1.938;2022-08-16T08:56:22;99071.19;;;19.01;75.15
63607;BME280;51327;52.466;-1.938;2022-08-16T08:58:49;99062.41;;;19.15;73.95
63607;BME280;51327;52.466;-1.938;2022-08-16T09:01:19;99072.88;;;19.18;73.60
63607;BME280;51327;52.466;-1.938;2022-08-16T09:03:48;99076.25;;;19.20;72.93
63607;BME280;51327;52.466;-1.938;2022-08-16T09:06:18;99074.22;;;19.30;73.28
63607;BME280;51327;52.466;-1.938;2022-08-16T09:08:45;99069.44;;;19.40;72.07
63607;BME280;51327;52.466;-1.938;2022-08-16T09:11:13;99060.94;;;19.44;72.12
63607;BME280;51327;52.466;-1.938;2022-08-16T09:13:40;99066.34;;;19.52;72.18
63607;BME280;51327;52.466;-1.938;2022-08-16T09:16:08;99061.22;;;19.65;71.33
63607;BME280;51327;52.466;-1.938;2022-08-16T09:18:35;99062.88;;;19.83;71.46
63607;BME280;51327;52.466;-1.938;2022-08-16T09:21:03;99069.81;;;19.85;70.40
63607;BME280;51327;52.466;-1.938;2022-08-16T09:23:33;99071.25;;;19.96;70.45
63607;BME280;51327;52.466;-1.938;2022-08-16T09:26:03;99078.22;;;19.98;69.30
63607;BME280;51327;52.466;-1.938;2022-08-16T09:28:30;99077.31;;;20.06;69.63
63607;BME280;51327;52.466;-1.938;2022-08-16T09:30:58;99083.81;;;20.20;69.08
63607;BME280;51327;52.466;-1.938;2022-08-16T09:33:25;99079.78;;;20.39;69.14
63607;BME280;51327;52.466;-1.938;2022-08-16T09:35:53;99086.13;;;20.54;68.81
63607;BME280;51327;52.466;-1.938;2022-08-16T09:38:21;99082.91;;;20.59;67.94
63607;BME280;51327;52.466;-1.938;2022-08-16T09:40:49;99078.53;;;20.50;67.25
63607;BME280;51327;52.466;-1.938;2022-08-16T09:43:19;99076.50;;;20.52;67.31
63607;BME280;51327;52.466;-1.938;2022-08-16T09:45:47;99086.97;;;20.55;67.11
63607;BME280;51327;52.466;-1.938;2022-08-16T09:48:15;99079.34;;;20.58;67.24
63607;BME280;51327;52.466;-1.938;2022-08-16T09:50:43;99077.53;;;20.74;67.02
63607;BME280;51327;52.466;-1.938;2022-08-16T09:53:15;99073.63;;;20.91;66.55
63607;BME280;51327;52.466;-1.938;2022-08-16T09:55:43;99076.22;;;21.08;65.80
63607;BME280;51327;52.466;-1.938;2022-08-16T09:58:12;99069.13;;;21.21;65.14
63607;BME280;51327;52.466;-1.938;2022-08-16T10:00:40;99072.28;;;21.25;64.96
63607;BME280;51327;52.466;-1.938;2022-08-16T10:03:07;99068.78;;;21.39;64.25
63607;BME280;51327;52.466;-1.938;2022-08-16T10:05:35;99082.00;;;21.42;64.37
63607;BME280;51327;52.466;-1.938;2022-08-16T10:08:04;99078.88;;;21.45;63.62
63607;BME280;51327;52.466;-1.938;2022-08-16T10:10:32;99076.38;;;21.44;63.70
63607;BME280;51327;52.466;-1.938;2022-08-16T10:13:00;99073.66;;;21.44;63.49
63607;BME280;51327;52.466;-1.938;2022-08-16T10:15:42;99072.88;;;21.35;63.17
63607;BME280;51327;52.466;-1.938;2022-08-16T10:18:10;99069.06;;;21.44;63.57
63607;BME280;51327;52.466;-1.938;2022-08-16T10:20:40;99071.84;;;21.66;63.43
63607;BME280;51327;52.466;-1.938;2022-08-16T10:23:10;99073.25;;;21.77;62.60
63607;BME280;51327;52.466;-1.938;2022-08-16T10:25:38;99071.66;;;21.82;62.25
63607;BME280;51327;52.466;-1.938;2022-08-16T10:28:07;99063.50;;;21.82;61.70
63607;BME280;51327;52.466;-1.938;2022-08-16T10:30:35;99069.41;;;21.86;61.55
63607;BME280;51327;52.466;-1.938;2022-08-16T10:33:04;99074.75;;;21.94;61.41
63607;BME280;51327;52.466;-1.938;2022-08-16T10:35:31;99070.22;;;22.01;61.14
63607;BME280;51327;52.466;-1.938;2022-08-16T10:37:59;99065.34;;;21.97;60.42
63607;BME280;51327;52.466;-1.938;2022-08-16T10:40:26;99069.22;;;21.87;60.38
63607;BME280;51327;52.466;-1.938;2022-08-16T10:42:54;99066.22;;;21.82;60.61
63607;BME280;51327;52.466;-1.938;2022-08-16T10:45:35;99071.13;;;21.72;60.29
63607;BME280;51327;52.466;-1.938;2022-08-16T10:48:15;99073.66;;;21.74;60.65
63607;BME280;51327;52.466;-1.938;2022-08-16T10:50:43;99071.38;;;21.77;61.16
63607;BME280;51327;52.466;-1.938;2022-08-16T10:53:11;99065.59;;;21.80;60.56
63607;BME280;51327;52.466;-1.938;2022-08-16T10:55:40;99068.66;;;21.77;60.26
63607;BME280;51327;52.466;-1.938;2022-08-16T10:58:09;99073.09;;;21.63;60.56
63607;BME280;51327;52.466;-1.938;2022-08-16T11:00:38;99073.91;;;21.64;60.84
63607;BME280;51327;52.466;-1.938;2022-08-16T11:03:07;99080.13;;;21.58;60.82
63607;BME280;51327;52.466;-1.938;2022-08-16T11:05:36;99069.81;;;21.53;60.87
63607;BME280;51327;52.466;-1.938;2022-08-16T11:08:05;99074.03;;;21.56;60.70
63607;BME280;51327;52.466;-1.938;2022-08-16T11:10:34;99068.78;;;21.54;60.68
63607;BME280;51327;52.466;-1.938;2022-08-16T11:13:02;99071.97;;;21.58;60.81
63607;BME280;51327;52.466;-1.938;2022-08-16T11:15:30;99077.19;;;21.59;60.75
63607;BME280;51327;52.466;-1.938;2022-08-16T11:17:55;99078.91;;;21.60;60.71
63607;BME280;51327;52.466;-1.938;2022-08-16T11:20:21;99073.56;;;21.67;60.80
63607;BME280;51327;52.466;-1.938;2022-08-16T11:22:48;99078.53;;;21.78;60.30
63607;BME280;51327;52.466;-1.938;2022-08-16T11:25:17;99082.13;;;22.00;59.63
63607;BME280;51327;52.466;-1.938;2022-08-16T11:27:45;99082.66;;;22.10;59.28
63607;BME280;51327;52.466;-1.938;2022-08-16T11:30:13;99086.81;;;22.21;59.70
63607;BME280;51327;52.466;-1.938;2022-08-16T11:32:41;99084.34;;;22.26;59.24
63607;BME280;51327;52.466;-1.938;2022-08-16T11:35:12;99087.97;;;22.34;58.89
63607;BME280;51327;52.466;-1.938;2022-08-16T11:37:40;99094.06;;;22.36;58.65
63607;BME280;51327;52.466;-1.938;2022-08-16T11:40:08;99088.38;;;22.30;58.80
63607;BME280;51327;52.466;-1.938;2022-08-16T11:42:36;99098.13;;;22.25;58.21
63607;BME280;51327;52.466;-1.938;2022-08-16T11:45:03;99106.00;;;22.20;58.20
63607;BME280;51327;52.466;-1.938;2022-08-16T11:47:31;99098.22;;;22.17;57.97
63607;BME280;51327;52.466;-1.938;2022-08-16T11:49:58;99096.72;;;22.14;58.18
63607;BME280;51327;52.466;-1.938;2022-08-16T11:52:24;99100.66;;;22.11;58.12
63607;BME280;51327;52.466;-1.938;2022-08-16T11:54:50;99099.00;;;22.10;58.49
63607;BME280;51327;52.466;-1.938;2022-08-16T11:57:18;99097.38;;;22.16;58.71
63607;BME280;51327;52.466;-1.938;2022-08-16T11:59:45;99099.44;;;22.14;58.20
63607;BME280;51327;52.466;-1.938;2022-08-16T12:02:13;99100.41;;;22.06;58.93
63607;BME280;51327;52.466;-1.938;2022-08-16T12:04:40;99105.00;;;22.06;58.72
63607;BME280;51327;52.466;-1.938;2022-08-16T12:07:08;99105.38;;;22.03;58.55
63607;BME280;51327;52.466;-1.938;2022-08-16T12:09:37;99106.00;;;22.05;58.90
63607;BME280;51327;52.466;-1.938;2022-08-16T12:12:04;99103.59;;;22.10;58.46
63607;BME280;51327;52.466;-1.938;2022-08-16T12:14:32;99103.47;;;22.18;58.67
63607;BME280;51327;52.466;-1.938;2022-08-16T12:17:00;99106.84;;;22.35;58.13
63607;BME280;51327;52.466;-1.938;2022-08-16T12:19:30;99114.28;;;22.48;57.96
63607;BME280;51327;52.466;-1.938;2022-08-16T12:21:58;99103.28;;;22.56;57.51
63607;BME280;51327;52.466;-1.938;2022-08-16T12:24:29;99101.53;;;22.70;57.74
63607;BME280;51327;52.466;-1.938;2022-08-16T12:26:56;99102.75;;;22.89;56.82
63607;BME280;51327;52.466;-1.938;2022-08-16T12:29:24;99105.84;;;23.01;56.05
63607;BME280;51327;52.466;-1.938;2022-08-16T12:31:51;99096.94;;;22.92;55.60
63607;BME280;51327;52.466;-1.938;2022-08-16T12:34:19;99100.03;;;22.89;55.85
63607;BME280;51327;52.466;-1.938;2022-08-16T12:36:46;99098.00;;;22.98;56.38
63607;BME280;51327;52.466;-1.938;2022-08-16T12:39:12;99106.25;;;23.04;55.64
63607;BME280;51327;52.466;-1.938;2022-08-16T12:41:38;99100.94;;;23.18;55.78
63607;BME280;51327;52.466;-1.938;2022-08-16T12:44:05;99107.50;;;23.30;55.21
63607;BME280;51327;52.466;-1.938;2022-08-16T12:46:31;99098.06;;;23.26;55.20
63607;BME280;51327;52.466;-1.938;2022-08-16T12:49:00;99101.88;;;23.31;55.13
63607;BME280;51327;52.466;-1.938;2022-08-16T12:51:30;99099.84;;;23.40;54.62
63607;BME280;51327;52.466;-1.938;2022-08-16T12:53:56;99105.28;;;23.40;54.49
63607;BME280;51327;52.466;-1.938;2022-08-16T12:56:23;99104.72;;;23.51;54.26